首页
METAR-TAF:

METAR-TAF

机场 :

柏林-泰格尔奥托·利林塔尔机场

柏林, 德国

纬度: 52-34N, 经度: 013-19E, 海拔: 37米

当前天气观测

该预报发布于33分钟前的01:50 UTC
风速13节,风向西,在西转西南西北之间变化
温度 12°C
湿度 76%
气压 1019 hPa
能见度10公里或以上
少量云层高于2300英尺
多云层高于4200英尺

METAR: EDDT 230150Z 28013KT 250V320 9999 FEW023 BKN042 12/08 Q1019

时间: 04:23 (02:23 UTC)

预报

该预报发布于3小时和23分钟前的23:00 UTC
预报有效从23日的 00点(UTC)到 23日的 24点(UTC)
风速12节,风向西
能见度10公里或以上
多云层高于4000英尺
短暂存在
从 23日的 00点(UTC)到 23日的 04点(UTC)
风速15节,风向西,有时为25节阵风
成为
从 23日的 04点(UTC)到 23日的 07点(UTC)
风速15节,风向西,有时为25节阵风
成为
从 23日的 18点(UTC)到 23日的 20点(UTC)
风速10节,风向西

TAF: EDDT 222300Z 2300/2324 27012KT 9999 BKN040 TEMPO 2300/2304 28015G25KT BECMG 2304/2307 28015G25KT BECMG 2318/2320 28010KT

超过4000个机场的气象观测和天气预报(METAR&TAF报告)。

可查询的气象台以黄色和红色小点在地图上表示。

将鼠标移到小点上方,可查看气象台名称。

然后点击查看天气观测和预报。

如需切换地图:点击带黑十字的绿色按钮放大地图;点击带横线的绿色按钮缩小地图;或者点击绿色箭头查看邻近地区的地图。


METAR-TAF: